createdAt,value
2018-01-02T00:02:12.915Z,7.80
2018-01-02T00:04:41.232Z,7.80
2018-01-02T00:07:09.529Z,7.80
2018-01-02T00:09:37.840Z,7.90
2018-01-02T00:12:06.902Z,7.90
2018-01-02T00:14:35.219Z,7.90
2018-01-02T00:17:04.286Z,7.90
2018-01-02T00:19:32.578Z,7.80
2018-01-02T00:22:01.645Z,7.80
2018-01-02T00:24:29.948Z,7.70
2018-01-02T00:26:58.238Z,7.70
2018-01-02T00:29:28.066Z,7.60
2018-01-02T00:31:56.364Z,7.60
2018-01-02T00:34:25.437Z,7.40
2018-01-02T00:36:53.806Z,7.40
2018-01-02T00:39:22.128Z,7.30
2018-01-02T00:41:51.183Z,7.20
2018-01-02T00:44:19.464Z,7.20
2018-01-02T00:46:47.764Z,7.10
2018-01-02T00:49:16.083Z,7.10
2018-01-02T00:51:44.390Z,7.00
2018-01-02T00:54:12.700Z,7.10
2018-01-02T00:56:42.506Z,7.20
2018-01-02T00:59:10.932Z,7.20
2018-01-02T01:01:40.035Z,7.20
2018-01-02T01:04:08.350Z,7.20
2018-01-02T01:06:36.668Z,7.20
2018-01-02T01:09:04.983Z,7.20
2018-01-02T01:11:33.305Z,7.20
2018-01-02T01:14:01.618Z,7.20
2018-01-02T01:16:29.939Z,7.20
2018-01-02T01:18:58.289Z,7.20
2018-01-02T01:21:26.602Z,7.10
2018-01-02T01:23:54.915Z,7.10
2018-01-02T01:26:23.415Z,7.10
2018-01-02T01:28:51.771Z,7.10
2018-01-02T01:31:20.069Z,7.00
2018-01-02T01:33:48.399Z,7.00
2018-01-02T01:36:17.466Z,6.90
2018-01-02T01:38:47.273Z,6.90
2018-01-02T01:41:15.767Z,6.90
2018-01-02T01:43:44.857Z,6.90
2018-01-02T01:46:13.385Z,6.90
2018-01-02T01:48:55.587Z,6.90
2018-01-02T01:51:23.913Z,6.90
2018-01-02T01:53:52.267Z,6.90
2018-01-02T01:56:21.461Z,6.90
2018-01-02T01:58:49.769Z,6.90
2018-01-02T02:01:18.069Z,6.80
2018-01-02T02:03:46.390Z,6.90
2018-01-02T02:06:15.457Z,6.90
2018-01-02T02:08:46.723Z,6.90
2018-01-02T02:11:16.268Z,7.10
2018-01-02T02:13:44.584Z,7.10
2018-01-02T02:16:12.913Z,7.20
2018-01-02T02:18:41.237Z,7.30
2018-01-02T02:21:09.535Z,7.30
2018-01-02T02:23:37.857Z,7.40
2018-01-02T02:26:06.969Z,7.40
2018-01-02T02:28:35.285Z,7.40
2018-01-02T02:31:03.603Z,7.40
2018-01-02T02:33:31.897Z,7.50
2018-01-02T02:36:01.004Z,7.50
2018-01-02T02:38:29.379Z,7.50
2018-01-02T02:41:08.319Z,7.50
2018-01-02T02:43:36.665Z,7.50
2018-01-02T02:46:05.777Z,7.60
2018-01-02T02:48:34.364Z,7.50
2018-01-02T02:51:03.457Z,7.60
2018-01-02T02:53:31.781Z,7.50
2018-01-02T02:56:00.062Z,7.60
2018-01-02T02:58:28.481Z,7.60
2018-01-02T03:00:56.783Z,7.60
2018-01-02T03:03:26.655Z,7.70
2018-01-02T03:05:54.957Z,7.70
2018-01-02T03:08:23.279Z,7.70
2018-01-02T03:10:52.341Z,7.70
2018-01-02T03:13:20.669Z,7.70
2018-01-02T03:15:49.772Z,7.70
2018-01-02T03:18:18.873Z,7.60
2018-01-02T03:20:47.209Z,7.60
2018-01-02T03:23:15.521Z,7.60
2018-01-02T03:25:44.589Z,7.70
2018-01-02T03:28:12.914Z,7.70
2018-01-02T03:30:41.982Z,7.70
2018-01-02T03:33:10.319Z,7.70
2018-01-02T03:35:38.631Z,7.80
2018-01-02T03:38:07.025Z,7.80
2018-01-02T03:40:36.940Z,7.80
2018-01-02T03:43:05.372Z,7.80
2018-01-02T03:45:33.903Z,7.80
2018-01-02T03:48:02.429Z,7.80
2018-01-02T03:50:30.773Z,7.90
2018-01-02T03:52:59.153Z,7.90
2018-01-02T03:55:27.457Z,7.90
2018-01-02T03:57:55.777Z,7.90
2018-01-02T04:00:24.107Z,7.90
2018-01-02T04:02:52.515Z,7.80
2018-01-02T04:05:21.601Z,7.80
2018-01-02T04:07:49.931Z,7.90
2018-01-02T04:10:18.257Z,7.90
2018-01-02T04:12:46.543Z,7.90
2018-01-02T04:15:15.136Z,7.90
2018-01-02T04:17:43.420Z,7.80
2018-01-02T04:20:11.787Z,7.70
2018-01-02T04:22:40.151Z,7.70
2018-01-02T04:25:08.557Z,7.60
2018-01-02T04:27:36.862Z,7.50
2018-01-02T04:30:05.945Z,7.30
2018-01-02T04:32:35.029Z,7.30
2018-01-02T04:35:03.321Z,7.30
2018-01-02T04:37:31.616Z,7.20
2018-01-02T04:40:00.697Z,7.20
2018-01-02T04:42:30.524Z,7.20
2018-01-02T04:45:00.318Z,7.10
2018-01-02T04:47:28.619Z,7.10
2018-01-02T04:49:57.718Z,7.10
2018-01-02T04:52:27.580Z,7.00
2018-01-02T04:54:55.875Z,7.00
2018-01-02T04:57:24.196Z,7.10
2018-01-02T04:59:54.027Z,7.00
2018-01-02T05:02:23.114Z,7.00
2018-01-02T05:04:52.169Z,7.00
2018-01-02T05:07:20.484Z,7.00
2018-01-02T05:09:49.707Z,6.90
2018-01-02T05:12:18.779Z,6.90
2018-01-02T05:14:47.096Z,6.90
2018-01-02T05:17:16.156Z,6.90
2018-01-02T05:19:45.211Z,6.90
2018-01-02T05:22:13.541Z,6.90
2018-01-02T05:24:41.838Z,7.00
2018-01-02T05:27:10.145Z,7.00
2018-01-02T05:29:39.265Z,7.00
2018-01-02T05:32:07.613Z,7.00
2018-01-02T05:34:36.693Z,7.00
2018-01-02T05:37:05.751Z,7.00
2018-01-02T05:39:34.048Z,6.90
2018-01-02T05:42:02.357Z,7.00
2018-01-02T05:44:30.658Z,7.00
2018-01-02T05:46:59.731Z,7.00
2018-01-02T05:49:28.067Z,7.00
2018-01-02T05:51:56.380Z,7.00
2018-01-02T05:54:24.715Z,7.00
2018-01-02T05:56:53.028Z,7.00
2018-01-02T05:59:21.336Z,7.00
2018-01-02T06:01:49.641Z,7.10
2018-01-02T06:04:17.941Z,7.10
2018-01-02T06:06:46.268Z,7.00
2018-01-02T06:09:14.588Z,7.00
2018-01-02T06:11:43.655Z,7.00
2018-01-02T06:14:11.994Z,7.00
2018-01-02T06:16:40.452Z,7.00
2018-01-02T06:19:08.758Z,7.00
2018-01-02T06:21:37.094Z,7.00
2018-01-02T06:24:05.407Z,7.00
2018-01-02T06:26:34.612Z,6.90
2018-01-02T06:29:03.762Z,6.90
2018-01-02T06:31:32.078Z,6.90
2018-01-02T06:34:00.400Z,6.90
2018-01-02T06:36:28.727Z,7.00
2018-01-02T06:38:57.454Z,7.00
2018-01-02T06:41:26.524Z,6.90
2018-01-02T06:43:54.878Z,6.90
2018-01-02T06:46:23.212Z,6.90
2018-01-02T06:48:52.288Z,6.80
2018-01-02T06:51:21.354Z,6.90
2018-01-02T06:53:49.661Z,6.90
2018-01-02T06:56:17.992Z,6.90
2018-01-02T06:58:46.313Z,6.90
2018-01-02T07:01:14.862Z,6.90
2018-01-02T07:03:43.176Z,6.90
2018-01-02T07:06:11.628Z,6.90
2018-01-02T07:08:39.912Z,6.90
2018-01-02T07:11:08.224Z,6.90
2018-01-02T07:13:36.520Z,6.90
2018-01-02T07:16:05.606Z,6.90
2018-01-02T07:18:33.939Z,6.90
2018-01-02T07:21:02.266Z,6.90
2018-01-02T07:23:30.677Z,6.90
2018-01-02T07:25:59.744Z,6.90
2018-01-02T07:28:28.050Z,6.90
2018-01-02T07:30:56.930Z,6.90
2018-01-02T07:33:25.226Z,6.90
2018-01-02T07:35:53.600Z,6.90
2018-01-02T07:38:21.975Z,7.00
2018-01-02T07:40:50.323Z,7.00
2018-01-02T07:43:18.646Z,7.00
2018-01-02T07:45:46.997Z,7.10
2018-01-02T07:48:15.324Z,7.10
2018-01-02T07:50:43.839Z,7.10
2018-01-02T07:53:12.995Z,7.10
2018-01-02T07:55:41.319Z,7.10
2018-01-02T07:58:10.394Z,7.10
2018-01-02T08:00:38.706Z,7.10
2018-01-02T08:03:07.018Z,7.10
2018-01-02T08:05:35.443Z,7.10
2018-01-02T08:08:03.796Z,7.10
2018-01-02T08:10:32.168Z,7.10
2018-01-02T08:13:00.475Z,7.10
2018-01-02T08:15:29.485Z,7.10
2018-01-02T08:17:58.592Z,7.20
2018-01-02T08:20:26.910Z,7.20
2018-01-02T08:22:55.217Z,7.20
2018-01-02T08:25:23.518Z,7.30
2018-01-02T08:27:51.818Z,7.30
2018-01-02T08:30:20.901Z,7.30
2018-01-02T08:32:49.971Z,7.30
2018-01-02T08:35:18.384Z,7.30
2018-01-02T08:37:46.836Z,7.30
2018-01-02T08:40:15.129Z,7.40
2018-01-02T08:42:43.430Z,7.40
2018-01-02T08:45:11.762Z,7.40
2018-01-02T08:47:40.071Z,7.50
2018-01-02T08:50:08.374Z,7.50
2018-01-02T08:52:36.691Z,7.50
2018-01-02T08:55:05.042Z,7.50
2018-01-02T08:57:33.350Z,7.40
2018-01-02T09:00:02.426Z,7.30
2018-01-02T09:02:32.258Z,7.30
2018-01-02T09:05:01.497Z,7.30
2018-01-02T09:07:29.912Z,7.30
2018-01-02T09:09:58.257Z,7.30
2018-01-02T09:12:32.122Z,7.30
2018-01-02T09:15:00.434Z,7.30
2018-01-02T09:17:29.561Z,7.30
2018-01-02T09:19:57.877Z,7.30
2018-01-02T09:22:27.891Z,7.30
2018-01-02T09:24:56.200Z,7.30
2018-01-02T09:27:25.302Z,7.30
2018-01-02T09:29:54.384Z,7.30
2018-01-02T09:32:23.483Z,7.30
2018-01-02T09:34:51.790Z,7.30
2018-01-02T09:37:20.867Z,7.50
2018-01-02T09:39:50.125Z,7.60
2018-01-02T09:42:18.458Z,7.60
2018-01-02T09:44:46.752Z,7.60
2018-01-02T09:47:15.804Z,7.70
2018-01-02T09:49:44.202Z,7.70
2018-01-02T09:52:12.580Z,7.70
2018-01-02T09:54:40.934Z,7.80
2018-01-02T09:57:09.236Z,7.90
2018-01-02T09:59:37.586Z,8.00
2018-01-02T10:02:05.900Z,8.00
2018-01-02T10:04:34.256Z,8.10
2018-01-02T10:07:03.408Z,8.10
2018-01-02T10:09:31.777Z,8.10
2018-01-02T10:12:00.096Z,8.10
2018-01-02T10:14:29.208Z,8.10
2018-01-02T10:16:57.522Z,8.10
2018-01-02T10:19:25.937Z,8.10
2018-01-02T10:21:54.290Z,8.10
2018-01-02T10:24:22.614Z,8.10
2018-01-02T10:26:50.975Z,8.10
2018-01-02T10:29:19.349Z,8.10
2018-01-02T10:31:47.674Z,8.20
2018-01-02T10:34:16.014Z,8.20
2018-01-02T10:36:44.558Z,8.30
2018-01-02T10:39:12.876Z,8.40
2018-01-02T10:41:41.261Z,8.40
2018-01-02T10:44:09.605Z,8.40
2018-01-02T10:46:37.910Z,8.40
2018-01-02T10:49:06.316Z,8.50
2018-01-02T10:51:34.687Z,8.40
2018-01-02T10:54:03.018Z,8.40
2018-01-02T10:56:32.089Z,8.40
2018-01-02T10:59:00.454Z,8.40
2018-01-02T11:01:28.741Z,8.40
2018-01-02T11:03:57.848Z,8.30
2018-01-02T11:06:26.149Z,8.30
2018-01-02T11:08:54.506Z,8.30
2018-01-02T11:11:22.821Z,8.40
2018-01-02T11:13:53.808Z,8.40
2018-01-02T11:16:22.127Z,8.40
2018-01-02T11:18:51.213Z,8.40
2018-01-02T11:21:19.514Z,8.40
2018-01-02T11:23:48.604Z,8.50
2018-01-02T11:26:17.817Z,8.60
2018-01-02T11:28:46.237Z,8.50
2018-01-02T11:31:14.544Z,8.60
2018-01-02T11:33:42.957Z,8.60
2018-01-02T11:36:12.764Z,8.60
2018-01-02T11:38:41.155Z,8.60
2018-01-02T11:41:09.483Z,8.70
2018-01-02T11:43:37.823Z,8.70
2018-01-02T11:46:06.124Z,8.80
2018-01-02T11:48:35.458Z,8.90
2018-01-02T11:51:03.792Z,8.80
2018-01-02T11:53:32.128Z,8.90
2018-01-02T11:56:00.439Z,8.90
2018-01-02T11:58:28.747Z,8.90
2018-01-02T12:00:57.069Z,8.90
2018-01-02T12:03:25.407Z,9.00
2018-01-02T12:05:54.490Z,9.20
2018-01-02T12:08:22.791Z,9.10
2018-01-02T12:10:51.093Z,9.20
2018-01-02T12:13:20.175Z,9.30
2018-01-02T12:15:49.277Z,9.30
2018-01-02T12:18:18.355Z,9.30
2018-01-02T12:20:47.421Z,9.30
2018-01-02T12:23:15.757Z,9.30
2018-01-02T12:25:44.092Z,9.20
2018-01-02T12:28:12.437Z,9.20
2018-01-02T12:30:40.772Z,9.20
2018-01-02T12:33:10.011Z,9.20
2018-01-02T12:35:39.069Z,9.30
2018-01-02T12:38:07.390Z,9.30
2018-01-02T12:40:36.474Z,9.20
2018-01-02T12:43:04.795Z,9.20
2018-01-02T12:45:33.113Z,9.20
2018-01-02T12:48:01.421Z,9.20
2018-01-02T12:50:29.739Z,9.20
2018-01-02T12:52:58.046Z,9.20
2018-01-02T12:55:26.413Z,9.20
2018-01-02T12:57:54.768Z,9.20
2018-01-02T13:00:23.873Z,9.20
2018-01-02T13:02:52.181Z,9.20
2018-01-02T13:05:20.575Z,9.20
2018-01-02T13:07:48.900Z,9.20
2018-01-02T13:10:18.085Z,9.20
2018-01-02T13:12:46.421Z,9.20
2018-01-02T13:15:14.846Z,9.20
2018-01-02T13:17:43.155Z,9.10
2018-01-02T13:20:12.793Z,9.00
2018-01-02T13:22:41.116Z,9.00
2018-01-02T13:25:09.601Z,9.00
2018-01-02T13:27:37.949Z,8.90
2018-01-02T13:30:06.595Z,8.90
2018-01-02T13:32:34.951Z,8.90
2018-01-02T13:35:03.337Z,8.90
2018-01-02T13:37:31.835Z,9.00
2018-01-02T13:40:01.677Z,9.00
2018-01-02T13:42:30.747Z,9.00
2018-01-02T13:44:59.839Z,9.00
2018-01-02T13:47:28.269Z,9.00
2018-01-02T13:49:57.365Z,8.90
2018-01-02T13:52:26.473Z,8.90
2018-01-02T13:54:54.801Z,8.90
2018-01-02T13:57:23.115Z,8.90
2018-01-02T13:59:51.429Z,8.90
2018-01-02T14:02:19.757Z,8.90
2018-01-02T14:04:48.063Z,8.90
2018-01-02T14:07:17.167Z,8.90
2018-01-02T14:09:46.353Z,8.90
2018-01-02T14:12:14.644Z,8.90
2018-01-02T14:14:43.741Z,8.90
2018-01-02T14:17:12.078Z,8.90
2018-01-02T14:19:40.431Z,8.90
2018-01-02T14:22:08.736Z,8.90
2018-01-02T14:24:37.053Z,8.90
2018-01-02T14:27:05.409Z,8.80
2018-01-02T14:29:33.735Z,8.80
2018-01-02T14:32:02.809Z,8.70
2018-01-02T14:34:31.136Z,8.70
2018-01-02T14:36:59.453Z,8.70
2018-01-02T14:39:27.763Z,8.70
2018-01-02T14:41:56.094Z,8.70
2018-01-02T14:44:24.407Z,8.70
2018-01-02T14:46:52.729Z,8.70
2018-01-02T14:49:21.801Z,8.70
2018-01-02T14:51:50.127Z,8.70
2018-01-02T14:54:18.456Z,8.60
2018-01-02T14:56:46.776Z,8.60
2018-01-02T14:59:15.835Z,8.50
2018-01-02T15:01:44.397Z,8.50
2018-01-02T15:04:12.753Z,8.50
2018-01-02T15:06:41.074Z,8.50
2018-01-02T15:09:09.380Z,8.50
2018-01-02T15:11:39.179Z,8.40
2018-01-02T15:14:07.471Z,8.40
2018-01-02T15:16:35.779Z,8.30
2018-01-02T15:19:04.107Z,8.30
2018-01-02T15:21:32.461Z,8.40
2018-01-02T15:24:00.775Z,8.30
2018-01-02T15:26:29.092Z,8.30
2018-01-02T15:28:57.405Z,8.30
2018-01-02T15:31:26.481Z,8.10
2018-01-02T15:33:55.118Z,8.10
2018-01-02T15:36:23.445Z,8.10
2018-01-02T15:38:52.510Z,8.10
2018-01-02T15:41:20.833Z,8.10
2018-01-02T15:43:49.983Z,8.00
2018-01-02T15:46:18.305Z,8.10
2018-01-02T15:48:47.372Z,8.00
2018-01-02T15:51:15.691Z,8.00
2018-01-02T15:53:45.498Z,7.90
2018-01-02T15:56:13.809Z,7.90
2018-01-02T15:58:42.898Z,7.90
2018-01-02T16:01:11.976Z,7.90
2018-01-02T16:03:41.127Z,7.90
2018-01-02T16:06:10.185Z,7.90
2018-01-02T16:08:39.266Z,7.90
2018-01-02T16:11:07.624Z,7.90
2018-01-02T16:13:36.024Z,7.90
2018-01-02T16:16:04.481Z,7.90
2018-01-02T16:18:32.818Z,7.90
2018-01-02T16:21:01.963Z,7.90
2018-01-02T16:23:30.446Z,7.90
2018-01-02T16:25:58.755Z,7.90
2018-01-02T16:28:27.087Z,7.90
2018-01-02T16:30:56.191Z,8.00
2018-01-02T16:33:26.086Z,8.00
2018-01-02T16:35:54.395Z,8.00
2018-01-02T16:38:23.630Z,7.90
2018-01-02T16:40:51.960Z,7.90
2018-01-02T16:43:21.032Z,7.90
2018-01-02T16:45:50.166Z,7.90
2018-01-02T16:48:19.674Z,7.90
2018-01-02T16:50:48.745Z,7.90
2018-01-02T16:53:17.146Z,7.90
2018-01-02T16:55:46.265Z,7.90
2018-01-02T16:58:15.330Z,7.90
2018-01-02T17:00:44.368Z,7.90
2018-01-02T17:03:12.710Z,7.90
2018-01-02T17:05:41.130Z,7.90
2018-01-02T17:08:10.228Z,7.90
2018-01-02T17:10:39.390Z,7.90
2018-01-02T17:13:07.834Z,7.80
2018-01-02T17:15:36.153Z,7.80
2018-01-02T17:20:39.083Z,7.70
2018-01-02T17:23:07.379Z,7.70
2018-01-02T17:25:36.570Z,7.70
2018-01-02T17:28:05.639Z,7.70
2018-01-02T17:30:33.940Z,7.70
2018-01-02T17:33:03.025Z,7.70
2018-01-02T17:35:31.357Z,7.70
2018-01-02T17:37:59.691Z,7.70
2018-01-02T17:40:28.034Z,7.70
2018-01-02T17:42:56.376Z,7.70
2018-01-02T17:45:25.518Z,7.60
2018-01-02T17:47:53.851Z,7.60
2018-01-02T17:50:22.193Z,7.60
2018-01-02T17:52:50.485Z,7.50
2018-01-02T17:55:18.974Z,7.50
2018-01-02T17:57:47.538Z,7.50
2018-01-02T18:00:15.911Z,7.50
2018-01-02T18:02:44.218Z,7.40
2018-01-02T18:05:12.514Z,7.40
2018-01-02T18:07:42.343Z,7.40
2018-01-02T18:10:10.679Z,7.40
2018-01-02T18:12:38.960Z,7.40
2018-01-02T18:15:07.253Z,7.40
2018-01-02T18:17:35.556Z,7.40
2018-01-02T18:20:03.852Z,7.40
2018-01-02T18:22:32.171Z,7.40
2018-01-02T18:25:00.486Z,7.40
2018-01-02T18:27:28.816Z,7.40
2018-01-02T18:29:57.913Z,7.40
2018-01-02T18:32:26.968Z,7.30
2018-01-02T18:34:55.290Z,7.30
2018-01-02T18:37:23.629Z,7.30
2018-01-02T18:39:51.929Z,7.30
2018-01-02T18:42:20.836Z,7.30
2018-01-02T18:44:49.915Z,7.20
2018-01-02T18:47:18.202Z,7.20
2018-01-02T18:49:46.548Z,7.10
2018-01-02T18:52:14.876Z,7.10
2018-01-02T18:54:43.244Z,7.10
2018-01-02T18:57:11.598Z,7.10
2018-01-02T18:59:40.267Z,7.10
2018-01-02T19:02:08.756Z,7.10
2018-01-02T19:04:37.414Z,7.10
2018-01-02T19:07:05.800Z,7.10
2018-01-02T19:09:34.411Z,7.00
2018-01-02T19:12:03.076Z,7.00
2018-01-02T19:14:31.428Z,7.00
2018-01-02T19:16:59.842Z,7.00
2018-01-02T19:19:29.272Z,7.10
2018-01-02T19:21:57.627Z,7.10
2018-01-02T19:24:26.860Z,7.10
2018-01-02T19:26:55.236Z,7.20
2018-01-02T19:29:24.537Z,7.20
2018-01-02T19:31:53.080Z,7.20
2018-01-02T19:34:22.202Z,7.10
2018-01-02T19:36:52.012Z,7.10
2018-01-02T19:39:20.376Z,7.10
2018-01-02T19:41:48.994Z,7.10
2018-01-02T19:44:17.526Z,7.20
2018-01-02T19:46:45.846Z,7.20
2018-01-02T19:49:14.342Z,7.20
2018-01-02T19:51:43.462Z,7.20
2018-01-02T19:54:12.802Z,7.20
2018-01-02T19:56:41.171Z,7.20
2018-01-02T19:59:09.478Z,7.20
2018-01-02T20:01:37.793Z,7.20
2018-01-02T20:04:06.145Z,7.20
2018-01-02T20:06:34.815Z,7.30
2018-01-02T20:09:03.530Z,7.30
2018-01-02T20:11:33.994Z,7.40
2018-01-02T20:14:02.891Z,7.40
2018-01-02T20:16:31.605Z,7.40
2018-01-02T20:18:59.978Z,7.40
2018-01-02T20:21:29.408Z,7.50
2018-01-02T20:23:57.752Z,7.50
2018-01-02T20:26:26.334Z,7.50
2018-01-02T20:28:56.247Z,7.60
2018-01-02T20:31:24.580Z,7.50
2018-01-02T20:33:52.936Z,7.60
2018-01-02T20:36:22.018Z,7.70
2018-01-02T20:38:50.632Z,7.70
2018-01-02T20:41:19.084Z,7.80
2018-01-02T20:43:47.656Z,7.80
2018-01-02T20:46:16.824Z,7.90
2018-01-02T20:48:45.471Z,7.90
2018-01-02T20:51:14.176Z,7.90
2018-01-02T20:53:42.563Z,8.00
2018-01-02T20:56:11.650Z,8.10
2018-01-02T20:58:39.974Z,8.10
2018-01-02T21:01:08.263Z,8.10
2018-01-02T21:03:37.097Z,8.20
2018-01-02T21:06:05.822Z,8.20
2018-01-02T21:08:34.549Z,8.30
2018-01-02T21:11:04.407Z,8.30
2018-01-02T21:13:33.382Z,8.30
2018-01-02T21:16:01.780Z,8.30
2018-01-02T21:18:30.878Z,8.40
2018-01-02T21:20:59.740Z,8.40
2018-01-02T21:23:28.068Z,8.40
2018-01-02T21:25:57.142Z,8.40
2018-01-02T21:28:25.454Z,8.40
2018-01-02T21:30:54.732Z,8.50
2018-01-02T21:33:23.369Z,8.50
2018-01-02T21:35:51.681Z,8.60
2018-01-02T21:38:20.089Z,8.60
2018-01-02T21:40:49.197Z,8.60
2018-01-02T21:43:17.563Z,8.60
2018-01-02T21:45:45.980Z,8.60
2018-01-02T21:48:15.425Z,8.70
2018-01-02T21:50:45.194Z,8.70
2018-01-02T21:53:13.924Z,8.80
2018-01-02T21:55:44.310Z,8.80
2018-01-02T21:58:16.129Z,8.90
2018-01-02T22:00:47.920Z,8.90
2018-01-02T22:03:17.045Z,8.90
2018-01-02T22:06:08.738Z,8.90
2018-01-02T22:08:37.167Z,8.90
2018-01-02T22:11:05.767Z,9.00
2018-01-02T22:13:36.669Z,9.00
2018-01-02T22:16:05.127Z,9.00
2018-01-02T22:18:33.448Z,9.00
2018-01-02T22:21:02.539Z,9.10
2018-01-02T22:23:31.042Z,9.10
2018-01-02T22:25:59.387Z,9.10
2018-01-02T22:28:27.712Z,9.20
2018-01-02T22:30:56.121Z,9.20
2018-01-02T22:33:24.481Z,9.20
2018-01-02T22:35:52.860Z,9.20
2018-01-02T22:38:21.225Z,9.20
2018-01-02T22:40:50.355Z,9.30
2018-01-02T22:43:18.680Z,9.20
2018-01-02T22:45:46.987Z,9.30
2018-01-02T22:48:16.070Z,9.30
2018-01-02T22:50:44.461Z,9.30
2018-01-02T22:53:12.797Z,9.40
2018-01-02T22:55:41.103Z,9.40
2018-01-02T22:58:09.443Z,9.40
2018-01-02T23:00:40.595Z,9.40
2018-01-02T23:03:08.917Z,9.40
2018-01-02T23:05:37.250Z,9.40
2018-01-02T23:08:05.549Z,9.50
2018-01-02T23:10:33.861Z,9.50
2018-01-02T23:13:02.173Z,9.50
2018-01-02T23:15:31.461Z,9.50
2018-01-02T23:17:59.787Z,9.50
2018-01-02T23:20:28.144Z,9.60
2018-01-02T23:22:57.245Z,9.60
2018-01-02T23:25:25.619Z,9.60
2018-01-02T23:27:54.701Z,9.60
2018-01-02T23:30:23.041Z,9.60
2018-01-02T23:32:51.359Z,9.60
2018-01-02T23:35:19.673Z,9.60
2018-01-02T23:37:48.805Z,9.60
2018-01-02T23:40:17.152Z,9.60
2018-01-02T23:42:46.230Z,9.60
2018-01-02T23:45:14.560Z,9.60
2018-01-02T23:47:42.890Z,9.60
2018-01-02T23:50:11.195Z,9.60
2018-01-02T23:52:40.399Z,9.60
2018-01-02T23:55:09.497Z,9.50
2018-01-02T23:57:38.598Z,9.50
